createdAt,value
2018-10-16T00:00:26.154Z,99.99
2018-10-16T00:01:26.066Z,99.99
2018-10-16T00:02:26.010Z,99.99
2018-10-16T00:03:25.968Z,99.99
2018-10-16T00:04:25.910Z,99.99
2018-10-16T00:05:25.918Z,99.99
2018-10-16T00:06:25.812Z,99.99
2018-10-16T00:07:25.767Z,99.99
2018-10-16T00:08:25.718Z,99.99
2018-10-16T00:09:25.708Z,99.99
2018-10-16T00:10:25.642Z,99.99
2018-10-16T00:11:25.597Z,99.99
2018-10-16T00:12:25.521Z,99.99
2018-10-16T00:13:25.488Z,99.99
2018-10-16T00:14:25.418Z,99.99
2018-10-16T00:15:25.399Z,99.99
2018-10-16T00:16:25.322Z,99.99
2018-10-16T00:17:25.274Z,99.99
2018-10-16T00:18:25.226Z,99.99
2018-10-16T00:19:25.171Z,99.99
2018-10-16T00:20:25.159Z,99.99
2018-10-16T00:21:25.108Z,99.99
2018-10-16T00:22:25.023Z,99.99
2018-10-16T00:23:24.971Z,99.99
2018-10-16T00:24:24.926Z,99.99
2018-10-16T00:25:24.875Z,99.99
2018-10-16T00:26:24.856Z,99.99
2018-10-16T00:27:24.792Z,99.99
2018-10-16T00:28:24.729Z,99.99
2018-10-16T00:29:24.711Z,99.99
2018-10-16T00:30:24.672Z,99.99
2018-10-16T00:31:24.618Z,99.99
2018-10-16T00:32:24.547Z,99.99
2018-10-16T00:33:24.473Z,99.99
2018-10-16T00:34:24.434Z,99.99
2018-10-16T00:35:24.409Z,99.99
2018-10-16T00:36:24.323Z,99.99
2018-10-16T00:37:24.277Z,99.99
2018-10-16T00:38:24.235Z,99.99
2018-10-16T00:39:24.175Z,99.99
2018-10-16T00:40:24.156Z,99.99
2018-10-16T00:41:24.074Z,99.99
2018-10-16T00:42:24.030Z,99.99
2018-10-16T00:43:24.011Z,99.99
2018-10-16T00:44:23.922Z,99.99
2018-10-16T00:45:23.872Z,99.99
2018-10-16T00:46:23.828Z,99.99
2018-10-16T00:47:23.778Z,99.99
2018-10-16T00:48:23.755Z,99.99
2018-10-16T00:49:23.672Z,99.99
2018-10-16T00:50:23.625Z,99.99
2018-10-16T00:51:23.574Z,99.99
2018-10-16T00:52:23.566Z,99.99
2018-10-16T00:53:23.474Z,99.99
2018-10-16T00:54:23.422Z,99.99
2018-10-16T00:55:23.385Z,99.99
2018-10-16T00:56:23.325Z,99.99
2018-10-16T00:57:23.299Z,99.99
2018-10-16T00:58:23.273Z,99.99
2018-10-16T00:59:23.174Z,99.99
2018-10-16T01:00:23.124Z,99.99
2018-10-16T01:01:23.075Z,99.99
2018-10-16T01:02:23.023Z,99.99
2018-10-16T01:03:23.025Z,99.99
2018-10-16T01:04:22.919Z,99.99
2018-10-16T01:05:22.874Z,99.99
2018-10-16T01:06:22.820Z,99.99
2018-10-16T01:07:22.775Z,99.99
2018-10-16T01:08:22.760Z,99.99
2018-10-16T01:09:22.669Z,99.99
2018-10-16T01:10:22.624Z,99.99
2018-10-16T01:11:22.569Z,99.99
2018-10-16T01:12:22.519Z,99.99
2018-10-16T01:13:22.493Z,99.99
2018-10-16T01:14:22.457Z,99.99
2018-10-16T01:15:22.377Z,99.99
2018-10-16T01:16:22.320Z,99.99
2018-10-16T01:17:22.332Z,99.99
2018-10-16T01:18:22.220Z,99.99
2018-10-16T01:19:22.171Z,99.99
2018-10-16T01:20:22.121Z,99.99
2018-10-16T01:21:22.070Z,99.99
2018-10-16T01:22:22.046Z,99.99
2018-10-16T01:23:22.006Z,99.99
2018-10-16T01:24:21.922Z,99.99
2018-10-16T01:25:21.871Z,99.99
2018-10-16T01:26:21.822Z,99.99
2018-10-16T01:27:21.768Z,99.99
2018-10-16T01:28:21.760Z,99.99
2018-10-16T01:29:21.675Z,99.99
2018-10-16T01:30:21.626Z,99.99
2018-10-16T01:31:21.627Z,99.99
2018-10-16T01:32:21.529Z,99.99
2018-10-16T01:33:21.474Z,99.99
2018-10-16T01:34:21.424Z,99.99
2018-10-16T01:35:21.380Z,99.99
2018-10-16T01:36:21.375Z,99.99
2018-10-16T01:37:21.278Z,99.99
2018-10-16T01:38:21.224Z,99.99
2018-10-16T01:39:21.186Z,99.99
2018-10-16T01:40:21.130Z,99.99
2018-10-16T01:41:21.109Z,99.99
2018-10-16T01:42:21.022Z,99.99
2018-10-16T01:43:20.972Z,99.99
2018-10-16T01:44:20.955Z,99.99
2018-10-16T01:45:20.884Z,99.99
2018-10-16T01:46:20.825Z,99.99
2018-10-16T01:47:20.806Z,99.99
2018-10-16T01:48:20.728Z,99.99
2018-10-16T01:49:20.709Z,99.99
2018-10-16T01:50:20.626Z,99.99
2018-10-16T01:51:20.608Z,99.99
2018-10-16T01:52:20.530Z,99.99
2018-10-16T01:53:20.497Z,99.99
2018-10-16T01:54:20.463Z,99.99
2018-10-16T01:55:20.380Z,99.99
2018-10-16T01:56:20.324Z,99.99
2018-10-16T01:57:20.275Z,99.99
2018-10-16T01:58:20.258Z,99.99
2018-10-16T01:59:20.177Z,99.99
2018-10-16T02:00:20.168Z,99.99
2018-10-16T02:01:20.083Z,99.99
2018-10-16T02:02:20.030Z,99.99
2018-10-16T02:03:19.974Z,99.99
2018-10-16T02:04:19.951Z,99.99
2018-10-16T02:05:19.912Z,99.99
2018-10-16T02:06:19.864Z,99.99
2018-10-16T02:07:19.831Z,99.99
2018-10-16T02:08:19.726Z,99.99
2018-10-16T02:09:19.682Z,99.99
2018-10-16T02:10:19.631Z,99.99
2018-10-16T02:11:19.606Z,99.99
2018-10-16T02:12:19.524Z,99.99
2018-10-16T02:13:19.474Z,99.99
2018-10-16T02:14:19.456Z,99.99
2018-10-16T02:15:19.378Z,99.99
2018-10-16T02:16:19.327Z,99.99
2018-10-16T02:17:19.279Z,99.99
2018-10-16T02:18:19.239Z,99.99
2018-10-16T02:19:19.208Z,99.99
2018-10-16T02:20:19.128Z,99.99
2018-10-16T02:21:19.082Z,99.99
2018-10-16T02:22:19.049Z,99.99
2018-10-16T02:23:18.974Z,99.99
2018-10-16T02:24:18.925Z,99.99
2018-10-16T02:25:18.879Z,99.99
2018-10-16T02:26:18.827Z,99.99
2018-10-16T02:27:18.809Z,99.99
2018-10-16T02:28:18.728Z,99.99
2018-10-16T02:29:18.683Z,99.99
2018-10-16T02:30:18.660Z,99.99
2018-10-16T02:31:18.572Z,99.99
2018-10-16T02:32:18.527Z,99.99
2018-10-16T02:33:18.474Z,99.99
2018-10-16T02:34:18.503Z,99.99
2018-10-16T02:35:18.376Z,99.99
2018-10-16T02:36:18.323Z,99.99
2018-10-16T02:37:18.278Z,99.99
2018-10-16T02:38:18.224Z,99.99
2018-10-16T02:39:18.204Z,99.99
2018-10-16T02:40:18.145Z,99.99
2018-10-16T02:41:18.098Z,99.99
2018-10-16T02:42:18.021Z,99.99
2018-10-16T02:43:18.023Z,99.99
2018-10-16T02:44:17.920Z,99.99
2018-10-16T02:45:17.875Z,99.99
2018-10-16T02:46:17.861Z,99.99
2018-10-16T02:47:17.770Z,99.99
2018-10-16T02:48:17.723Z,99.99
2018-10-16T02:49:17.675Z,99.99
2018-10-16T02:50:17.621Z,99.99
2018-10-16T02:51:17.614Z,99.99
2018-10-16T02:52:17.522Z,99.99
2018-10-16T02:53:17.469Z,99.99
2018-10-16T02:54:17.423Z,99.99
2018-10-16T02:55:17.407Z,99.99
2018-10-16T02:56:17.319Z,99.99
2018-10-16T02:57:17.317Z,99.99
2018-10-16T02:58:17.219Z,99.99
2018-10-16T02:59:17.210Z,99.99
2018-10-16T03:00:17.125Z,99.99
2018-10-16T03:01:17.069Z,99.99
2018-10-16T03:02:17.018Z,99.99
2018-10-16T03:03:16.966Z,99.99
2018-10-16T03:04:16.952Z,99.99
2018-10-16T03:05:16.875Z,99.99
2018-10-16T03:06:16.851Z,99.99
2018-10-16T03:07:16.772Z,99.99
2018-10-16T03:08:16.735Z,99.99
2018-10-16T03:09:16.678Z,99.99
2018-10-16T03:10:16.650Z,99.99
2018-10-16T03:11:16.564Z,99.99
2018-10-16T03:12:16.515Z,99.99
2018-10-16T03:13:16.472Z,99.99
2018-10-16T03:14:16.415Z,99.99
2018-10-16T03:15:16.405Z,99.99
2018-10-16T03:16:16.340Z,99.99
2018-10-16T03:17:16.262Z,99.99
2018-10-16T03:18:16.248Z,99.99
2018-10-16T03:19:16.159Z,99.99
2018-10-16T03:20:16.132Z,99.99
2018-10-16T03:21:16.062Z,99.99
2018-10-16T03:22:16.010Z,99.99
2018-10-16T03:23:15.990Z,99.99
2018-10-16T03:24:15.909Z,99.99
2018-10-16T03:25:15.884Z,99.99
2018-10-16T03:26:15.839Z,99.99
2018-10-16T03:27:15.796Z,99.99
2018-10-16T03:28:15.707Z,99.99
2018-10-16T03:29:15.657Z,99.99
2018-10-16T03:30:15.609Z,99.99
2018-10-16T03:31:15.564Z,99.99
2018-10-16T03:32:15.533Z,99.99
2018-10-16T03:33:15.492Z,99.99
2018-10-16T03:34:15.453Z,99.99
2018-10-16T03:35:15.358Z,99.99
2018-10-16T03:36:15.307Z,99.99
2018-10-16T03:37:15.254Z,99.99
2018-10-16T03:38:15.208Z,99.99
2018-10-16T03:39:15.186Z,99.99
2018-10-16T03:40:15.101Z,99.99
2018-10-16T03:41:15.062Z,99.99
2018-10-16T03:42:15.000Z,99.99
2018-10-16T03:43:14.954Z,99.99
2018-10-16T03:44:14.941Z,99.99
2018-10-16T03:45:14.849Z,99.99
2018-10-16T03:46:14.800Z,99.99
2018-10-16T03:47:14.783Z,99.99
2018-10-16T03:48:14.701Z,99.99
2018-10-16T03:49:14.649Z,99.99
2018-10-16T03:50:14.600Z,99.99
2018-10-16T03:51:14.547Z,99.99
2018-10-16T03:52:14.556Z,99.99
2018-10-16T03:53:14.444Z,99.99
2018-10-16T03:54:14.428Z,99.99
2018-10-16T03:55:14.349Z,99.99
2018-10-16T03:56:14.298Z,99.99
2018-10-16T03:57:14.303Z,99.99
2018-10-16T03:58:14.196Z,99.99
2018-10-16T03:59:14.183Z,99.99
2018-10-16T04:00:14.090Z,99.99
2018-10-16T04:01:14.045Z,99.99
2018-10-16T04:02:13.994Z,99.99
2018-10-16T04:03:13.950Z,99.99
2018-10-16T04:04:13.921Z,99.99
2018-10-16T04:05:13.847Z,99.99
2018-10-16T04:06:13.787Z,99.99
2018-10-16T04:07:13.739Z,99.99
2018-10-16T04:08:13.720Z,99.99
2018-10-16T04:09:13.669Z,99.99
2018-10-16T04:10:13.591Z,99.99
2018-10-16T04:11:13.536Z,99.99
2018-10-16T04:12:13.485Z,99.99
2018-10-16T04:13:13.467Z,99.99
2018-10-16T04:14:13.390Z,99.99
2018-10-16T04:15:13.334Z,99.99
2018-10-16T04:16:13.285Z,99.99
2018-10-16T04:17:13.245Z,99.99
2018-10-16T04:18:13.219Z,99.99
2018-10-16T04:19:13.156Z,99.99
2018-10-16T04:20:13.114Z,99.99
2018-10-16T04:21:13.062Z,99.99
2018-10-16T04:22:13.000Z,99.99
2018-10-16T04:23:12.937Z,99.99
2018-10-16T04:24:12.879Z,99.99
2018-10-16T04:25:12.870Z,99.99
2018-10-16T04:26:12.784Z,99.99
2018-10-16T04:27:12.728Z,99.99
2018-10-16T04:28:12.683Z,99.99
2018-10-16T04:29:12.686Z,99.99
2018-10-16T04:30:12.623Z,99.99
2018-10-16T04:31:12.520Z,99.99
2018-10-16T04:32:12.470Z,99.99
2018-10-16T04:33:12.425Z,99.99
2018-10-16T04:34:12.367Z,99.99
2018-10-16T04:35:12.348Z,99.99
2018-10-16T04:36:12.272Z,99.99
2018-10-16T04:37:12.226Z,99.99
2018-10-16T04:38:12.212Z,99.99
2018-10-16T04:39:12.130Z,99.99
2018-10-16T04:40:12.067Z,99.99
2018-10-16T04:41:12.018Z,99.99
2018-10-16T04:42:11.977Z,99.99
2018-10-16T04:43:11.955Z,99.99
2018-10-16T04:44:11.879Z,99.99
2018-10-16T04:45:11.812Z,99.99
2018-10-16T04:46:11.764Z,99.99
2018-10-16T04:47:11.713Z,99.99
2018-10-16T04:48:11.687Z,99.99
2018-10-16T04:49:11.610Z,99.99
2018-10-16T04:50:11.563Z,99.99
2018-10-16T04:51:11.539Z,99.99
2018-10-16T04:52:11.490Z,99.99
2018-10-16T04:53:11.411Z,99.99
2018-10-16T04:54:11.392Z,99.99
2018-10-16T04:55:11.378Z,99.99
2018-10-16T04:56:11.253Z,99.99
2018-10-16T04:57:11.202Z,99.99
2018-10-16T04:58:11.149Z,99.99
2018-10-16T04:59:11.135Z,99.99
2018-10-16T05:00:11.050Z,99.99
2018-10-16T05:01:11.021Z,99.99
2018-10-16T05:02:10.951Z,99.99
2018-10-16T05:03:10.895Z,99.99
2018-10-16T05:04:10.992Z,99.99
2018-10-16T05:05:10.797Z,99.99
2018-10-16T05:06:10.745Z,99.99
2018-10-16T05:07:10.693Z,99.99
2018-10-16T05:08:10.640Z,99.99
2018-10-16T05:09:10.630Z,99.99
2018-10-16T05:10:10.546Z,99.99
2018-10-16T05:11:10.523Z,99.99
2018-10-16T05:12:10.509Z,99.99
2018-10-16T05:13:10.468Z,99.99
2018-10-16T05:14:10.341Z,99.99
2018-10-16T05:15:10.290Z,99.99
2018-10-16T05:16:10.238Z,99.99
2018-10-16T05:17:10.238Z,99.99
2018-10-16T05:18:10.136Z,99.99
2018-10-16T05:19:10.123Z,99.99
2018-10-16T05:20:10.034Z,99.99
2018-10-16T05:21:09.986Z,99.99
2018-10-16T05:22:09.981Z,99.99
2018-10-16T05:23:09.879Z,99.99
2018-10-16T05:24:09.831Z,99.99
2018-10-16T05:25:09.779Z,99.99
2018-10-16T05:26:09.764Z,99.99
2018-10-16T05:27:09.711Z,99.99
2018-10-16T05:28:09.635Z,99.99
2018-10-16T05:29:09.579Z,99.99
2018-10-16T05:30:09.525Z,99.99
2018-10-16T05:31:09.517Z,99.99
2018-10-16T05:32:09.448Z,99.99
2018-10-16T05:33:09.377Z,99.99
2018-10-16T05:34:09.324Z,99.99
2018-10-16T05:35:09.307Z,99.99
2018-10-16T05:36:09.233Z,99.99
2018-10-16T05:37:09.190Z,99.99
2018-10-16T05:38:09.121Z,99.99
2018-10-16T05:39:09.088Z,99.99
2018-10-16T05:40:09.050Z,99.99
2018-10-16T05:41:08.972Z,99.99
2018-10-16T05:42:08.914Z,99.99
2018-10-16T05:43:08.902Z,99.99
2018-10-16T05:44:08.813Z,99.99
2018-10-16T05:45:08.764Z,99.99
2018-10-16T05:46:08.717Z,99.99
2018-10-16T05:47:08.660Z,99.99
2018-10-16T05:48:08.659Z,99.99
2018-10-16T05:49:08.559Z,99.99
2018-10-16T05:50:08.510Z,99.99
2018-10-16T05:51:08.454Z,99.99
2018-10-16T05:52:08.406Z,99.99
2018-10-16T05:53:08.387Z,99.99
2018-10-16T05:54:08.365Z,99.99
2018-10-16T05:55:08.278Z,99.99
2018-10-16T05:56:08.202Z,99.99
2018-10-16T05:57:08.184Z,99.99
2018-10-16T05:58:08.102Z,99.99
2018-10-16T05:59:08.081Z,99.99
2018-10-16T06:00:08.006Z,99.99
2018-10-16T06:01:08.002Z,99.99
2018-10-16T06:02:07.921Z,99.99
2018-10-16T06:03:07.846Z,99.99
2018-10-16T06:04:07.799Z,99.99
2018-10-16T06:05:07.745Z,99.99
2018-10-16T06:06:07.728Z,99.99
2018-10-16T06:07:07.643Z,99.99
2018-10-16T06:08:07.592Z,99.99
2018-10-16T06:09:07.573Z,99.99
2018-10-16T06:10:07.508Z,99.99
2018-10-16T06:11:07.442Z,99.99
2018-10-16T06:12:07.444Z,99.99
2018-10-16T06:13:07.346Z,99.99
2018-10-16T06:14:07.321Z,99.99
2018-10-16T06:15:07.243Z,99.99
2018-10-16T06:16:07.246Z,99.99
2018-10-16T06:17:07.137Z,99.99
2018-10-16T06:18:07.086Z,99.99
2018-10-16T06:19:07.068Z,99.99
2018-10-16T06:20:06.983Z,99.99
2018-10-16T06:21:06.935Z,99.99
2018-10-16T06:22:06.884Z,99.99
2018-10-16T06:23:06.835Z,99.99
2018-10-16T06:24:06.845Z,99.99
2018-10-16T06:25:06.731Z,99.99
2018-10-16T06:26:06.681Z,99.99
2018-10-16T06:27:06.638Z,99.99
2018-10-16T06:28:06.579Z,99.99
2018-10-16T06:29:06.560Z,99.99
2018-10-16T06:30:06.483Z,99.99
2018-10-16T06:31:06.427Z,99.99
2018-10-16T06:32:06.386Z,99.99
2018-10-16T06:33:06.343Z,99.99
2018-10-16T06:34:06.313Z,99.99
2018-10-16T06:35:06.232Z,99.99
2018-10-16T06:36:06.179Z,99.99
2018-10-16T06:37:06.161Z,99.99
2018-10-16T06:38:06.077Z,99.99
2018-10-16T06:39:06.033Z,99.99
2018-10-16T06:40:06.008Z,99.99
2018-10-16T06:41:06.196Z,99.99
2018-10-16T06:42:05.884Z,99.99
2018-10-16T06:43:05.878Z,99.99
2018-10-16T06:44:05.777Z,99.99
2018-10-16T06:45:05.729Z,99.99
2018-10-16T06:46:05.678Z,99.99
2018-10-16T06:47:05.631Z,99.99
2018-10-16T06:48:05.741Z,99.99
2018-10-16T06:49:05.547Z,99.99
2018-10-16T06:50:05.481Z,99.99
2018-10-16T06:51:05.453Z,99.99
2018-10-16T06:52:05.381Z,98.63
2018-10-16T06:53:05.386Z,92.52
2018-10-16T06:54:05.289Z,88.15
2018-10-16T06:55:05.299Z,82.61
2018-10-16T06:56:05.198Z,81.70
2018-10-16T06:57:05.154Z,74.99
2018-10-16T06:58:05.146Z,73.14
2018-10-16T06:59:05.062Z,69.29
2018-10-16T07:00:05.036Z,67.40
2018-10-16T07:01:04.991Z,65.08
2018-10-16T07:02:04.934Z,64.53
2018-10-16T07:03:04.939Z,62.79
2018-10-16T07:04:04.850Z,61.35
2018-10-16T07:05:04.844Z,61.57
2018-10-16T07:06:04.771Z,60.99
2018-10-16T07:07:04.809Z,61.96
2018-10-16T07:08:04.697Z,61.67
2018-10-16T07:09:04.656Z,62.48
2018-10-16T07:10:04.653Z,63.82
2018-10-16T07:11:04.574Z,64.08
2018-10-16T07:12:04.538Z,64.34
2018-10-16T07:13:04.497Z,62.31
2018-10-16T07:14:04.462Z,62.34
2018-10-16T07:15:04.506Z,60.35
2018-10-16T07:16:04.380Z,58.64
2018-10-16T07:17:04.347Z,57.19
2018-10-16T07:18:04.307Z,57.21
2018-10-16T07:19:04.269Z,55.82
2018-10-16T07:20:04.254Z,54.69
2018-10-16T07:21:04.251Z,53.23
2018-10-16T07:22:04.166Z,52.97
2018-10-16T07:23:04.119Z,52.58
2018-10-16T07:24:04.188Z,51.86
2018-10-16T07:25:04.054Z,50.79
2018-10-16T07:26:04.021Z,49.75
2018-10-16T07:27:04.006Z,49.29
2018-10-16T07:28:03.945Z,48.42
2018-10-16T07:29:03.970Z,48.22
2018-10-16T07:30:03.999Z,47.47
2018-10-16T07:31:03.834Z,47.08
2018-10-16T07:32:03.828Z,46.41
2018-10-16T07:33:03.766Z,45.94
2018-10-16T07:34:03.738Z,45.72
2018-10-16T07:35:03.738Z,45.36
2018-10-16T07:36:03.663Z,45.65
2018-10-16T07:37:03.629Z,45.45
2018-10-16T07:38:03.706Z,44.97
2018-10-16T07:39:03.656Z,44.48
2018-10-16T07:40:03.567Z,44.21
2018-10-16T07:41:03.554Z,43.82
2018-10-16T07:42:03.458Z,43.44
2018-10-16T07:43:03.428Z,43.44
2018-10-16T07:44:03.424Z,43.02
2018-10-16T07:45:03.367Z,43.86
2018-10-16T07:46:03.376Z,43.98
2018-10-16T07:47:03.309Z,43.80
2018-10-16T07:48:03.261Z,43.80
2018-10-16T07:49:03.228Z,43.59
2018-10-16T07:50:03.213Z,43.86
2018-10-16T07:51:03.191Z,44.71
2018-10-16T07:52:03.138Z,43.68
2018-10-16T07:53:03.110Z,43.02
2018-10-16T07:54:03.063Z,42.08
2018-10-16T07:55:03.032Z,41.98
2018-10-16T07:56:03.053Z,42.61
2018-10-16T07:57:03.024Z,43.30
2018-10-16T07:58:02.946Z,43.49
2018-10-16T07:59:02.903Z,43.01
2018-10-16T08:00:02.869Z,42.08
2018-10-16T08:01:02.880Z,41.30
2018-10-16T08:02:02.803Z,40.95
2018-10-16T08:03:02.775Z,40.68
2018-10-16T08:04:02.746Z,39.90
2018-10-16T08:05:02.702Z,39.45
2018-10-16T08:06:02.700Z,38.87
2018-10-16T08:07:02.658Z,38.30
2018-10-16T08:08:02.606Z,37.91
2018-10-16T08:09:02.605Z,37.63
2018-10-16T08:10:02.545Z,37.35
2018-10-16T08:11:02.510Z,37.15
2018-10-16T08:12:02.488Z,36.78
2018-10-16T08:13:02.503Z,36.80
2018-10-16T08:14:02.417Z,36.21
2018-10-16T08:15:02.391Z,36.72
2018-10-16T08:16:02.378Z,35.45
2018-10-16T08:17:02.347Z,35.82
2018-10-16T08:18:02.350Z,36.41
2018-10-16T08:19:02.266Z,36.02
2018-10-16T08:20:02.235Z,35.74
2018-10-16T08:21:02.196Z,35.55
2018-10-16T08:22:02.186Z,35.16
2018-10-16T08:23:02.161Z,35.25
2018-10-16T08:24:02.106Z,34.97
2018-10-16T08:25:02.092Z,34.70
2018-10-16T08:26:02.043Z,34.11
2018-10-16T08:27:02.047Z,33.94
2018-10-16T08:28:01.985Z,34.06
2018-10-16T08:29:01.954Z,33.98
2018-10-16T08:30:01.972Z,33.69
2018-10-16T08:31:01.916Z,34.05
2018-10-16T08:32:01.895Z,34.03
2018-10-16T08:33:01.832Z,33.90
2018-10-16T08:34:01.874Z,34.65
2018-10-16T08:35:01.768Z,35.41
2018-10-16T08:36:01.850Z,35.59
2018-10-16T08:37:01.797Z,34.94
2018-10-16T08:38:01.678Z,34.67
2018-10-16T08:39:01.647Z,34.57
2018-10-16T08:40:01.644Z,34.39
2018-10-16T08:41:01.622Z,34.48
2018-10-16T08:42:01.651Z,34.19
2018-10-16T08:43:01.553Z,34.00
2018-10-16T08:44:01.491Z,34.28
2018-10-16T08:45:01.548Z,34.28
2018-10-16T08:46:01.451Z,34.65
2018-10-16T08:47:01.436Z,35.10
2018-10-16T08:48:01.365Z,35.96
2018-10-16T08:49:01.354Z,36.24
2018-10-16T08:50:01.312Z,36.72
2018-10-16T08:51:01.271Z,36.72
2018-10-16T08:52:01.272Z,36.16
2018-10-16T08:53:01.214Z,36.06
2018-10-16T08:54:01.181Z,35.86
2018-10-16T08:55:01.257Z,35.59
2018-10-16T08:56:01.149Z,35.41
2018-10-16T08:57:01.083Z,35.90
2018-10-16T08:58:01.048Z,35.24
2018-10-16T08:59:01.045Z,35.14
2018-10-16T09:00:00.984Z,34.94
2018-10-16T09:01:00.963Z,35.04
2018-10-16T09:02:00.921Z,34.84
2018-10-16T09:03:00.890Z,34.94
2018-10-16T09:04:00.906Z,34.84
2018-10-16T09:05:00.827Z,34.65
2018-10-16T09:06:00.797Z,34.57
2018-10-16T09:07:00.818Z,34.67
2018-10-16T09:08:00.730Z,34.28
2018-10-16T09:09:00.757Z,34.57
2018-10-16T09:10:00.667Z,34.38
2018-10-16T09:11:00.640Z,34.18
2018-10-16T09:12:00.599Z,34.38
2018-10-16T09:13:00.634Z,34.57
2018-10-16T09:14:00.598Z,34.39
2018-10-16T09:15:00.506Z,34.19
2018-10-16T09:16:00.489Z,34.28
2018-10-16T09:17:00.448Z,34.39
2018-10-16T09:18:00.412Z,34.09
2018-10-16T09:19:00.417Z,33.80
2018-10-16T09:20:00.344Z,33.14
2018-10-16T09:21:00.313Z,33.82
2018-10-16T09:22:00.287Z,32.75
2018-10-16T09:23:00.250Z,33.62
2018-10-16T09:24:00.251Z,33.74
2018-10-16T09:25:00.206Z,33.54
2018-10-16T09:26:00.153Z,32.99
2018-10-16T09:27:00.154Z,32.12
2018-10-16T09:28:00.088Z,32.04
2018-10-16T09:29:00.095Z,31.67
2018-10-16T09:30:00.027Z,31.09
2018-10-16T09:30:59.993Z,30.32
2018-10-16T09:31:59.954Z,29.85
2018-10-16T09:32:59.922Z,29.34
2018-10-16T09:33:59.923Z,29.52
2018-10-16T09:34:59.856Z,30.68
2018-10-16T09:35:59.826Z,30.88
2018-10-16T09:36:59.792Z,30.40
2018-10-16T09:37:59.799Z,30.02
2018-10-16T09:38:59.755Z,29.35
2018-10-16T09:39:59.691Z,29.34
2018-10-16T09:40:59.669Z,29.53
2018-10-16T09:41:59.625Z,29.49
2018-10-16T09:42:59.619Z,30.36
2018-10-16T09:43:59.591Z,30.46
2018-10-16T09:44:59.527Z,30.37
2018-10-16T09:45:59.498Z,30.77
2018-10-16T09:46:59.458Z,30.57
2018-10-16T09:47:59.458Z,30.46
2018-10-16T09:48:59.434Z,30.64
2018-10-16T09:49:59.371Z,31.71
2018-10-16T09:50:59.330Z,32.07
2018-10-16T09:51:59.346Z,33.04
2018-10-16T09:52:59.265Z,33.14
2018-10-16T09:53:59.232Z,32.45
2018-10-16T09:54:59.207Z,32.65
2018-10-16T09:55:59.161Z,33.98
2018-10-16T09:56:59.163Z,34.39
2018-10-16T09:57:59.089Z,33.79
2018-10-16T09:58:59.052Z,33.90
2018-10-16T09:59:59.022Z,34.41
2018-10-16T10:00:59.020Z,33.92
2018-10-16T10:01:58.983Z,33.90
2018-10-16T10:02:58.914Z,33.98
2018-10-16T10:03:58.879Z,34.36
2018-10-16T10:04:58.851Z,35.59
2018-10-16T10:05:58.814Z,35.55
2018-10-16T10:06:58.805Z,36.02
2018-10-16T10:07:58.743Z,36.98
2018-10-16T10:08:58.703Z,37.54
2018-10-16T10:09:58.675Z,38.11
2018-10-16T10:10:58.706Z,38.48
2018-10-16T10:11:58.659Z,38.79
2018-10-16T10:12:58.562Z,39.26
2018-10-16T10:13:58.527Z,38.40
2018-10-16T10:14:58.491Z,38.11
2018-10-16T10:15:58.493Z,38.60
2018-10-16T10:16:58.419Z,38.70
2018-10-16T10:17:58.397Z,38.81
2018-10-16T10:18:58.351Z,38.21
2018-10-16T10:19:58.308Z,38.60
2018-10-16T10:20:58.325Z,39.08
2018-10-16T10:21:58.240Z,39.57
2018-10-16T10:22:58.207Z,39.57
2018-10-16T10:23:58.206Z,39.96
2018-10-16T10:24:58.134Z,39.28
2018-10-16T10:25:58.092Z,38.50
2018-10-16T10:26:58.051Z,38.60
2018-10-16T10:27:58.017Z,38.39
2018-10-16T10:28:58.012Z,37.90
2018-10-16T10:29:57.942Z,38.19
2018-10-16T10:30:57.928Z,38.29
2018-10-16T10:31:57.868Z,38.75
2018-10-16T10:32:57.831Z,38.65
2018-10-16T10:33:57.793Z,38.37
2018-10-16T10:34:57.757Z,38.65
2018-10-16T10:35:57.752Z,38.65
2018-10-16T10:36:57.683Z,38.93
2018-10-16T10:37:57.643Z,39.22
2018-10-16T10:38:57.606Z,39.49
2018-10-16T10:39:57.604Z,39.98
2018-10-16T10:40:57.532Z,40.05
2018-10-16T10:41:57.537Z,40.54
2018-10-16T10:42:57.460Z,40.33
2018-10-16T10:43:57.421Z,41.00
2018-10-16T10:44:57.383Z,41.39
2018-10-16T10:45:57.346Z,41.78
2018-10-16T10:46:57.341Z,41.47
2018-10-16T10:47:57.270Z,41.76
2018-10-16T10:48:57.232Z,42.05
2018-10-16T10:49:57.392Z,42.44
2018-10-16T10:50:57.344Z,42.05
2018-10-16T10:51:57.149Z,41.88
2018-10-16T10:52:57.125Z,41.49
2018-10-16T10:53:57.041Z,41.58
2018-10-16T10:54:57.003Z,41.49
2018-10-16T10:55:56.992Z,41.17
2018-10-16T10:56:57.090Z,41.08
2018-10-16T10:57:56.921Z,41.66
2018-10-16T10:58:56.874Z,41.95
2018-10-16T10:59:56.813Z,41.78
2018-10-16T11:00:56.777Z,41.49
2018-10-16T11:01:56.736Z,41.78
2018-10-16T11:02:56.767Z,41.68
2018-10-16T11:03:56.791Z,41.49
2018-10-16T11:04:56.629Z,41.51
2018-10-16T11:05:56.596Z,42.02
2018-10-16T11:06:56.545Z,41.82
2018-10-16T11:07:56.508Z,41.51
2018-10-16T11:08:56.517Z,41.02
2018-10-16T11:09:56.436Z,41.02
2018-10-16T11:10:56.421Z,41.41
2018-10-16T11:11:56.354Z,41.49
2018-10-16T11:12:56.315Z,41.78
2018-10-16T11:13:56.280Z,41.78
2018-10-16T11:14:56.322Z,41.88
2018-10-16T11:15:56.199Z,42.07
2018-10-16T11:16:56.160Z,42.36
2018-10-16T11:17:56.124Z,42.24
2018-10-16T11:18:56.087Z,42.72
2018-10-16T11:19:56.075Z,43.41
2018-10-16T11:20:56.049Z,43.09
2018-10-16T11:21:56.002Z,42.61
2018-10-16T11:22:55.929Z,42.80
2018-10-16T11:23:55.891Z,42.71
2018-10-16T11:24:55.874Z,43.09
2018-10-16T11:25:55.849Z,43.00
2018-10-16T11:26:55.842Z,43.29
2018-10-16T11:27:55.754Z,43.38
2018-10-16T11:28:55.728Z,43.58
2018-10-16T11:29:55.659Z,44.06
2018-10-16T11:30:55.621Z,44.09
2018-10-16T11:31:55.581Z,43.96
2018-10-16T11:32:55.563Z,43.99
2018-10-16T11:33:55.572Z,44.06
2018-10-16T11:34:55.462Z,44.09
2018-10-16T11:35:55.460Z,44.47
2018-10-16T11:36:55.421Z,44.47
2018-10-16T11:37:55.347Z,44.47
2018-10-16T11:38:55.357Z,44.47
2018-10-16T11:39:55.271Z,44.01
2018-10-16T11:40:55.229Z,44.01
2018-10-16T11:41:55.189Z,43.82
2018-10-16T11:42:55.162Z,44.20
2018-10-16T11:43:55.146Z,43.72
2018-10-16T11:44:55.371Z,43.74
2018-10-16T11:45:55.042Z,43.93
2018-10-16T11:46:54.999Z,44.05
2018-10-16T11:47:54.990Z,44.15
2018-10-16T11:48:54.922Z,43.10
2018-10-16T11:49:54.940Z,43.10
2018-10-16T11:50:54.882Z,42.83
2018-10-16T11:51:54.812Z,42.05
2018-10-16T11:52:54.772Z,42.08
2018-10-16T11:53:54.733Z,41.59
2018-10-16T11:54:54.714Z,41.49
2018-10-16T11:55:54.662Z,41.88
2018-10-16T11:56:54.619Z,41.22
2018-10-16T11:57:54.574Z,41.22
2018-10-16T11:58:54.534Z,40.95
2018-10-16T11:59:54.545Z,40.85
2018-10-16T12:00:54.461Z,41.06
2018-10-16T12:01:54.431Z,40.68
2018-10-16T12:02:54.379Z,40.31
2018-10-16T12:03:54.348Z,39.62
2018-10-16T12:04:54.349Z,39.43
2018-10-16T12:05:54.315Z,39.80
2018-10-16T12:06:54.265Z,39.51
2018-10-16T12:07:54.200Z,39.31
2018-10-16T12:08:54.181Z,40.17
2018-10-16T12:09:54.151Z,39.86
2018-10-16T12:10:54.077Z,40.06
2018-10-16T12:11:54.039Z,40.15
2018-10-16T12:12:54.064Z,40.44
2018-10-16T12:13:54.012Z,41.13
2018-10-16T12:14:54.057Z,41.20
2018-10-16T12:15:53.885Z,41.59
2018-10-16T12:16:53.955Z,41.98
2018-10-16T12:17:53.810Z,41.77
2018-10-16T12:18:53.776Z,41.57
2018-10-16T12:19:53.837Z,41.47
2018-10-16T12:20:53.739Z,41.57
2018-10-16T12:21:53.690Z,41.67
2018-10-16T12:22:53.618Z,41.55
2018-10-16T12:23:53.595Z,42.03
2018-10-16T12:24:53.596Z,42.43
2018-10-16T12:25:53.525Z,42.25
2018-10-16T12:26:53.530Z,42.54
2018-10-16T12:27:53.425Z,43.02
2018-10-16T12:28:53.517Z,42.61
2018-10-16T12:29:53.362Z,43.22
2018-10-16T12:30:53.318Z,42.66
2018-10-16T12:31:53.315Z,42.08
2018-10-16T12:32:53.246Z,41.88
2018-10-16T12:33:53.198Z,41.69
2018-10-16T12:34:53.164Z,41.59
2018-10-16T12:35:53.152Z,41.28
2018-10-16T12:36:53.103Z,41.57
2018-10-16T12:37:53.076Z,41.49
2018-10-16T12:38:53.046Z,41.49
2018-10-16T12:39:53.000Z,41.78
2018-10-16T12:40:52.966Z,41.32
2018-10-16T12:41:52.902Z,41.59
2018-10-16T12:42:53.065Z,41.20
2018-10-16T12:43:52.904Z,41.10
2018-10-16T12:44:52.788Z,41.18
2018-10-16T12:45:52.759Z,41.28
2018-10-16T12:46:52.710Z,41.55
2018-10-16T12:47:52.732Z,41.94
2018-10-16T12:48:52.655Z,41.55
2018-10-16T12:49:52.609Z,42.13
2018-10-16T12:50:52.594Z,42.30
2018-10-16T12:51:52.519Z,42.79